sensor_id;sensor_type;location;lat;lon;timestamp;P1;durP1;ratioP1;P2;durP2;ratioP2
52104;SDS011;38103;42.776;23.112;2022-12-18T00:01:05;23.83;;;13.25;;
52104;SDS011;38103;42.776;23.112;2022-12-18T00:03:40;24.80;;;13.02;;
52104;SDS011;38103;42.776;23.112;2022-12-18T00:06:05;23.75;;;12.93;;
52104;SDS011;38103;42.776;23.112;2022-12-18T00:08:31;22.70;;;11.98;;
52104;SDS011;38103;42.776;23.112;2022-12-18T00:11:02;24.38;;;12.48;;
52104;SDS011;38103;42.776;23.112;2022-12-18T00:13:31;24.95;;;13.18;;
52104;SDS011;38103;42.776;23.112;2022-12-18T00:16:01;24.20;;;13.48;;
52104;SDS011;38103;42.776;23.112;2022-12-18T00:18:31;22.38;;;12.57;;
52104;SDS011;38103;42.776;23.112;2022-12-18T00:21:00;23.00;;;11.32;;
52104;SDS011;38103;42.776;23.112;2022-12-18T00:23:27;21.33;;;11.48;;
52104;SDS011;38103;42.776;23.112;2022-12-18T00:25:53;23.40;;;12.35;;
52104;SDS011;38103;42.776;23.112;2022-12-18T00:28:18;24.17;;;13.65;;
52104;SDS011;38103;42.776;23.112;2022-12-18T00:30:44;23.05;;;12.60;;
52104;SDS011;38103;42.776;23.112;2022-12-18T00:33:09;24.83;;;13.05;;
52104;SDS011;38103;42.776;23.112;2022-12-18T00:35:34;26.20;;;13.75;;
52104;SDS011;38103;42.776;23.112;2022-12-18T00:38:00;26.17;;;12.73;;
52104;SDS011;38103;42.776;23.112;2022-12-18T00:40:25;25.02;;;13.52;;
52104;SDS011;38103;42.776;23.112;2022-12-18T00:42:51;27.35;;;14.45;;
52104;SDS011;38103;42.776;23.112;2022-12-18T00:45:23;25.73;;;13.27;;
52104;SDS011;38103;42.776;23.112;2022-12-18T00:47:49;29.63;;;14.90;;
52104;SDS011;38103;42.776;23.112;2022-12-18T00:50:15;28.13;;;15.43;;
52104;SDS011;38103;42.776;23.112;2022-12-18T00:52:40;29.85;;;15.63;;
52104;SDS011;38103;42.776;23.112;2022-12-18T00:55:06;29.42;;;15.00;;
52104;SDS011;38103;42.776;23.112;2022-12-18T00:57:32;29.98;;;15.35;;
52104;SDS011;38103;42.776;23.112;2022-12-18T00:59:57;28.48;;;14.40;;
52104;SDS011;38103;42.776;23.112;2022-12-18T01:02:23;26.67;;;14.02;;
52104;SDS011;38103;42.776;23.112;2022-12-18T01:04:48;29.17;;;14.27;;
52104;SDS011;38103;42.776;23.112;2022-12-18T01:07:13;29.27;;;14.10;;
52104;SDS011;38103;42.776;23.112;2022-12-18T01:09:39;27.42;;;14.05;;
52104;SDS011;38103;42.776;23.112;2022-12-18T01:12:04;28.38;;;15.27;;
52104;SDS011;38103;42.776;23.112;2022-12-18T01:14:30;27.40;;;13.50;;
52104;SDS011;38103;42.776;23.112;2022-12-18T01:16:55;25.55;;;14.20;;
52104;SDS011;38103;42.776;23.112;2022-12-18T01:19:21;28.65;;;13.48;;
52104;SDS011;38103;42.776;23.112;2022-12-18T01:21:48;28.42;;;14.02;;
52104;SDS011;38103;42.776;23.112;2022-12-18T01:24:14;27.70;;;14.68;;
52104;SDS011;38103;42.776;23.112;2022-12-18T01:26:40;26.52;;;14.15;;
52104;SDS011;38103;42.776;23.112;2022-12-18T01:29:05;27.00;;;13.60;;
52104;SDS011;38103;42.776;23.112;2022-12-18T01:31:32;25.25;;;13.85;;
52104;SDS011;38103;42.776;23.112;2022-12-18T01:34:00;23.75;;;12.63;;
52104;SDS011;38103;42.776;23.112;2022-12-18T01:36:27;23.02;;;13.23;;
52104;SDS011;38103;42.776;23.112;2022-12-18T01:38:54;25.92;;;13.05;;
52104;SDS011;38103;42.776;23.112;2022-12-18T01:41:25;25.48;;;13.55;;
52104;SDS011;38103;42.776;23.112;2022-12-18T01:47:15;23.10;;;11.68;;
52104;SDS011;38103;42.776;23.112;2022-12-18T01:49:45;25.80;;;12.40;;
52104;SDS011;38103;42.776;23.112;2022-12-18T01:52:11;22.95;;;11.57;;
52104;SDS011;38103;42.776;23.112;2022-12-18T01:54:36;23.15;;;11.55;;
52104;SDS011;38103;42.776;23.112;2022-12-18T01:57:02;21.95;;;12.18;;
52104;SDS011;38103;42.776;23.112;2022-12-18T01:59:27;26.58;;;12.07;;
52104;SDS011;38103;42.776;23.112;2022-12-18T02:01:54;22.13;;;12.38;;
52104;SDS011;38103;42.776;23.112;2022-12-18T02:04:23;25.52;;;12.65;;
52104;SDS011;38103;42.776;23.112;2022-12-18T02:06:52;24.92;;;12.55;;
52104;SDS011;38103;42.776;23.112;2022-12-18T02:09:28;23.45;;;11.90;;
52104;SDS011;38103;42.776;23.112;2022-12-18T02:12:07;22.35;;;12.48;;
52104;SDS011;38103;42.776;23.112;2022-12-18T02:14:40;25.25;;;13.20;;
52104;SDS011;38103;42.776;23.112;2022-12-18T02:17:17;25.30;;;13.00;;
52104;SDS011;38103;42.776;23.112;2022-12-18T02:27:49;24.30;;;12.07;;
52104;SDS011;38103;42.776;23.112;2022-12-18T02:30:17;22.73;;;12.27;;
52104;SDS011;38103;42.776;23.112;2022-12-18T02:32:45;25.85;;;13.50;;
52104;SDS011;38103;42.776;23.112;2022-12-18T02:35:16;26.63;;;14.32;;
52104;SDS011;38103;42.776;23.112;2022-12-18T02:37:47;29.67;;;14.00;;
52104;SDS011;38103;42.776;23.112;2022-12-18T02:40:13;29.30;;;15.15;;
52104;SDS011;38103;42.776;23.112;2022-12-18T02:42:42;25.35;;;12.65;;
52104;SDS011;38103;42.776;23.112;2022-12-18T02:45:07;25.48;;;13.07;;
52104;SDS011;38103;42.776;23.112;2022-12-18T02:47:34;25.77;;;13.43;;
52104;SDS011;38103;42.776;23.112;2022-12-18T02:59:14;22.65;;;12.13;;
52104;SDS011;38103;42.776;23.112;2022-12-18T03:01:51;23.23;;;12.35;;
52104;SDS011;38103;42.776;23.112;2022-12-18T03:07:19;26.13;;;11.70;;
52104;SDS011;38103;42.776;23.112;2022-12-18T03:09:50;21.40;;;10.77;;
52104;SDS011;38103;42.776;23.112;2022-12-18T03:12:21;23.92;;;11.77;;
52104;SDS011;38103;42.776;23.112;2022-12-18T03:17:23;24.20;;;10.75;;
52104;SDS011;38103;42.776;23.112;2022-12-18T03:19:51;23.83;;;12.13;;
52104;SDS011;38103;42.776;23.112;2022-12-18T03:22:21;24.55;;;13.52;;
52104;SDS011;38103;42.776;23.112;2022-12-18T03:24:50;26.10;;;12.32;;
52104;SDS011;38103;42.776;23.112;2022-12-18T03:27:18;25.30;;;12.90;;
52104;SDS011;38103;42.776;23.112;2022-12-18T03:29:46;26.77;;;13.18;;
52104;SDS011;38103;42.776;23.112;2022-12-18T03:32:23;26.05;;;13.07;;
52104;SDS011;38103;42.776;23.112;2022-12-18T03:34:57;25.98;;;14.00;;
52104;SDS011;38103;42.776;23.112;2022-12-18T03:37:26;28.95;;;15.15;;
52104;SDS011;38103;42.776;23.112;2022-12-18T03:39:52;29.35;;;14.88;;
52104;SDS011;38103;42.776;23.112;2022-12-18T03:42:32;31.38;;;15.60;;
52104;SDS011;38103;42.776;23.112;2022-12-18T03:45:11;29.60;;;15.50;;
52104;SDS011;38103;42.776;23.112;2022-12-18T03:50:22;27.83;;;15.02;;
52104;SDS011;38103;42.776;23.112;2022-12-18T03:53:09;28.48;;;15.23;;
52104;SDS011;38103;42.776;23.112;2022-12-18T03:55:39;28.50;;;14.57;;
52104;SDS011;38103;42.776;23.112;2022-12-18T03:58:06;31.20;;;14.48;;
52104;SDS011;38103;42.776;23.112;2022-12-18T04:00:32;26.90;;;13.88;;
52104;SDS011;38103;42.776;23.112;2022-12-18T04:02:59;26.55;;;14.15;;
52104;SDS011;38103;42.776;23.112;2022-12-18T04:05:27;32.25;;;15.20;;
52104;SDS011;38103;42.776;23.112;2022-12-18T04:07:55;30.92;;;15.20;;
52104;SDS011;38103;42.776;23.112;2022-12-18T04:10:21;29.38;;;15.48;;
52104;SDS011;38103;42.776;23.112;2022-12-18T04:12:47;27.67;;;14.98;;
52104;SDS011;38103;42.776;23.112;2022-12-18T04:15:12;29.83;;;14.77;;
52104;SDS011;38103;42.776;23.112;2022-12-18T04:17:38;30.60;;;16.45;;
52104;SDS011;38103;42.776;23.112;2022-12-18T04:20:12;29.13;;;14.98;;
52104;SDS011;38103;42.776;23.112;2022-12-18T04:22:37;32.88;;;16.10;;
52104;SDS011;38103;42.776;23.112;2022-12-18T04:25:02;29.75;;;14.95;;
52104;SDS011;38103;42.776;23.112;2022-12-18T04:27:28;32.33;;;15.55;;
52104;SDS011;38103;42.776;23.112;2022-12-18T04:29:54;32.53;;;16.33;;
52104;SDS011;38103;42.776;23.112;2022-12-18T04:32:19;33.70;;;16.58;;
52104;SDS011;38103;42.776;23.112;2022-12-18T04:34:45;30.58;;;15.88;;
52104;SDS011;38103;42.776;23.112;2022-12-18T04:37:10;32.03;;;16.25;;
52104;SDS011;38103;42.776;23.112;2022-12-18T04:39:36;32.85;;;16.88;;
52104;SDS011;38103;42.776;23.112;2022-12-18T04:42:01;33.92;;;16.88;;
52104;SDS011;38103;42.776;23.112;2022-12-18T04:44:26;33.05;;;17.10;;
52104;SDS011;38103;42.776;23.112;2022-12-18T04:46:52;34.13;;;17.25;;
52104;SDS011;38103;42.776;23.112;2022-12-18T04:49:17;33.10;;;17.23;;
52104;SDS011;38103;42.776;23.112;2022-12-18T04:51:43;33.55;;;16.48;;
52104;SDS011;38103;42.776;23.112;2022-12-18T04:54:08;33.15;;;17.55;;
52104;SDS011;38103;42.776;23.112;2022-12-18T04:56:33;32.85;;;17.17;;
52104;SDS011;38103;42.776;23.112;2022-12-18T04:58:59;38.50;;;19.10;;
52104;SDS011;38103;42.776;23.112;2022-12-18T05:01:24;33.33;;;17.10;;
52104;SDS011;38103;42.776;23.112;2022-12-18T05:03:50;35.63;;;18.10;;
52104;SDS011;38103;42.776;23.112;2022-12-18T05:06:16;34.40;;;17.30;;
52104;SDS011;38103;42.776;23.112;2022-12-18T05:08:42;36.67;;;17.42;;
52104;SDS011;38103;42.776;23.112;2022-12-18T05:11:08;36.40;;;18.52;;
52104;SDS011;38103;42.776;23.112;2022-12-18T05:13:35;35.92;;;17.27;;
52104;SDS011;38103;42.776;23.112;2022-12-18T05:16:01;32.58;;;17.67;;
52104;SDS011;38103;42.776;23.112;2022-12-18T05:18:27;32.65;;;17.30;;
52104;SDS011;38103;42.776;23.112;2022-12-18T05:20:53;34.35;;;17.73;;
52104;SDS011;38103;42.776;23.112;2022-12-18T05:23:19;35.75;;;17.98;;
52104;SDS011;38103;42.776;23.112;2022-12-18T05:25:50;36.08;;;18.33;;
52104;SDS011;38103;42.776;23.112;2022-12-18T05:28:17;35.53;;;17.55;;
52104;SDS011;38103;42.776;23.112;2022-12-18T05:30:42;39.65;;;19.55;;
52104;SDS011;38103;42.776;23.112;2022-12-18T05:33:09;36.70;;;18.50;;
52104;SDS011;38103;42.776;23.112;2022-12-18T05:35:35;37.08;;;19.40;;
52104;SDS011;38103;42.776;23.112;2022-12-18T05:38:00;37.30;;;19.20;;
52104;SDS011;38103;42.776;23.112;2022-12-18T05:40:25;36.47;;;17.98;;
52104;SDS011;38103;42.776;23.112;2022-12-18T05:42:51;36.03;;;18.65;;
52104;SDS011;38103;42.776;23.112;2022-12-18T05:45:16;32.40;;;17.55;;
52104;SDS011;38103;42.776;23.112;2022-12-18T05:47:41;37.92;;;18.73;;
52104;SDS011;38103;42.776;23.112;2022-12-18T05:50:07;35.58;;;18.27;;
52104;SDS011;38103;42.776;23.112;2022-12-18T05:52:32;33.67;;;16.92;;
52104;SDS011;38103;42.776;23.112;2022-12-18T05:54:58;35.72;;;17.60;;
52104;SDS011;38103;42.776;23.112;2022-12-18T05:57:24;34.40;;;17.70;;
52104;SDS011;38103;42.776;23.112;2022-12-18T05:59:49;34.78;;;17.63;;
52104;SDS011;38103;42.776;23.112;2022-12-18T06:02:14;34.65;;;17.42;;
52104;SDS011;38103;42.776;23.112;2022-12-18T06:04:40;34.85;;;18.35;;
52104;SDS011;38103;42.776;23.112;2022-12-18T06:07:05;37.25;;;19.05;;
52104;SDS011;38103;42.776;23.112;2022-12-18T06:09:31;37.25;;;18.50;;
52104;SDS011;38103;42.776;23.112;2022-12-18T06:11:57;36.80;;;18.88;;
52104;SDS011;38103;42.776;23.112;2022-12-18T06:14:22;36.88;;;18.58;;
52104;SDS011;38103;42.776;23.112;2022-12-18T06:16:49;36.67;;;19.30;;
52104;SDS011;38103;42.776;23.112;2022-12-18T06:19:16;37.45;;;17.90;;
52104;SDS011;38103;42.776;23.112;2022-12-18T06:21:42;33.53;;;16.98;;
52104;SDS011;38103;42.776;23.112;2022-12-18T06:24:07;33.92;;;17.38;;
52104;SDS011;38103;42.776;23.112;2022-12-18T06:26:33;33.95;;;16.67;;
52104;SDS011;38103;42.776;23.112;2022-12-18T06:28:58;34.58;;;16.42;;
52104;SDS011;38103;42.776;23.112;2022-12-18T06:31:24;34.17;;;16.27;;
52104;SDS011;38103;42.776;23.112;2022-12-18T06:33:50;31.88;;;16.50;;
52104;SDS011;38103;42.776;23.112;2022-12-18T06:36:16;34.42;;;17.13;;
52104;SDS011;38103;42.776;23.112;2022-12-18T06:38:42;35.05;;;18.33;;
52104;SDS011;38103;42.776;23.112;2022-12-18T06:41:18;36.83;;;18.77;;
52104;SDS011;38103;42.776;23.112;2022-12-18T06:43:45;38.90;;;18.58;;
52104;SDS011;38103;42.776;23.112;2022-12-18T06:46:11;37.42;;;19.27;;
52104;SDS011;38103;42.776;23.112;2022-12-18T06:48:37;36.22;;;18.27;;
52104;SDS011;38103;42.776;23.112;2022-12-18T06:51:02;38.55;;;18.67;;
52104;SDS011;38103;42.776;23.112;2022-12-18T06:53:28;42.15;;;20.02;;
52104;SDS011;38103;42.776;23.112;2022-12-18T06:56:01;38.42;;;19.60;;
52104;SDS011;38103;42.776;23.112;2022-12-18T06:58:26;38.83;;;19.10;;
52104;SDS011;38103;42.776;23.112;2022-12-18T07:00:52;41.67;;;20.20;;
52104;SDS011;38103;42.776;23.112;2022-12-18T07:03:17;37.60;;;19.65;;
52104;SDS011;38103;42.776;23.112;2022-12-18T07:05:43;37.67;;;19.77;;
52104;SDS011;38103;42.776;23.112;2022-12-18T07:08:08;37.92;;;19.30;;
52104;SDS011;38103;42.776;23.112;2022-12-18T07:10:33;42.10;;;20.63;;
52104;SDS011;38103;42.776;23.112;2022-12-18T07:13:05;39.80;;;20.60;;
52104;SDS011;38103;42.776;23.112;2022-12-18T07:15:30;37.72;;;20.10;;
52104;SDS011;38103;42.776;23.112;2022-12-18T07:17:55;37.92;;;19.52;;
52104;SDS011;38103;42.776;23.112;2022-12-18T07:20:21;35.85;;;19.10;;
52104;SDS011;38103;42.776;23.112;2022-12-18T07:22:46;36.63;;;18.80;;
52104;SDS011;38103;42.776;23.112;2022-12-18T07:25:11;38.65;;;20.10;;
52104;SDS011;38103;42.776;23.112;2022-12-18T07:27:37;41.00;;;20.15;;
52104;SDS011;38103;42.776;23.112;2022-12-18T07:30:02;42.28;;;21.30;;
52104;SDS011;38103;42.776;23.112;2022-12-18T07:32:28;42.00;;;20.52;;
52104;SDS011;38103;42.776;23.112;2022-12-18T07:34:55;41.03;;;20.48;;
52104;SDS011;38103;42.776;23.112;2022-12-18T07:37:20;35.88;;;19.33;;
52104;SDS011;38103;42.776;23.112;2022-12-18T07:39:46;40.15;;;19.45;;
52104;SDS011;38103;42.776;23.112;2022-12-18T07:42:11;42.63;;;20.63;;
52104;SDS011;38103;42.776;23.112;2022-12-18T07:44:55;37.92;;;19.52;;
52104;SDS011;38103;42.776;23.112;2022-12-18T07:47:20;41.20;;;20.88;;
52104;SDS011;38103;42.776;23.112;2022-12-18T07:49:46;42.13;;;19.88;;
52104;SDS011;38103;42.776;23.112;2022-12-18T07:52:11;37.47;;;19.02;;
52104;SDS011;38103;42.776;23.112;2022-12-18T07:54:37;41.83;;;20.52;;
52104;SDS011;38103;42.776;23.112;2022-12-18T07:57:03;36.30;;;17.98;;
52104;SDS011;38103;42.776;23.112;2022-12-18T07:59:28;38.85;;;19.60;;
52104;SDS011;38103;42.776;23.112;2022-12-18T08:01:53;39.60;;;19.95;;
52104;SDS011;38103;42.776;23.112;2022-12-18T08:04:19;37.40;;;19.05;;
52104;SDS011;38103;42.776;23.112;2022-12-18T08:06:44;37.97;;;19.38;;
52104;SDS011;38103;42.776;23.112;2022-12-18T08:09:09;36.35;;;18.15;;
52104;SDS011;38103;42.776;23.112;2022-12-18T08:11:35;34.33;;;17.13;;
52104;SDS011;38103;42.776;23.112;2022-12-18T08:14:00;33.55;;;17.55;;
52104;SDS011;38103;42.776;23.112;2022-12-18T08:16:26;35.05;;;17.38;;
52104;SDS011;38103;42.776;23.112;2022-12-18T08:18:51;34.60;;;18.35;;
52104;SDS011;38103;42.776;23.112;2022-12-18T08:21:19;33.92;;;16.58;;
52104;SDS011;38103;42.776;23.112;2022-12-18T08:23:48;33.92;;;16.90;;
52104;SDS011;38103;42.776;23.112;2022-12-18T08:26:14;33.88;;;17.20;;
52104;SDS011;38103;42.776;23.112;2022-12-18T08:28:41;31.50;;;16.17;;
52104;SDS011;38103;42.776;23.112;2022-12-18T08:31:07;35.35;;;17.73;;
52104;SDS011;38103;42.776;23.112;2022-12-18T08:33:33;38.15;;;16.63;;
52104;SDS011;38103;42.776;23.112;2022-12-18T08:36:00;33.47;;;16.73;;
52104;SDS011;38103;42.776;23.112;2022-12-18T08:38:26;34.15;;;16.15;;
52104;SDS011;38103;42.776;23.112;2022-12-18T08:40:59;31.60;;;16.08;;
52104;SDS011;38103;42.776;23.112;2022-12-18T08:43:25;34.17;;;15.95;;
52104;SDS011;38103;42.776;23.112;2022-12-18T08:48:34;30.23;;;15.63;;
52104;SDS011;38103;42.776;23.112;2022-12-18T08:50:59;32.53;;;15.70;;
52104;SDS011;38103;42.776;23.112;2022-12-18T08:53:25;30.35;;;15.98;;
52104;SDS011;38103;42.776;23.112;2022-12-18T08:55:51;33.00;;;15.43;;
52104;SDS011;38103;42.776;23.112;2022-12-18T08:58:17;29.35;;;14.73;;
52104;SDS011;38103;42.776;23.112;2022-12-18T09:00:42;32.63;;;15.52;;
52104;SDS011;38103;42.776;23.112;2022-12-18T09:03:14;30.40;;;14.82;;
52104;SDS011;38103;42.776;23.112;2022-12-18T09:05:41;30.17;;;15.07;;
52104;SDS011;38103;42.776;23.112;2022-12-18T09:08:06;32.08;;;15.60;;
52104;SDS011;38103;42.776;23.112;2022-12-18T09:10:32;31.17;;;15.20;;
52104;SDS011;38103;42.776;23.112;2022-12-18T09:12:58;28.42;;;14.73;;
52104;SDS011;38103;42.776;23.112;2022-12-18T09:15:23;31.50;;;15.38;;
52104;SDS011;38103;42.776;23.112;2022-12-18T09:17:49;31.08;;;15.38;;
52104;SDS011;38103;42.776;23.112;2022-12-18T09:20:15;30.58;;;15.32;;
52104;SDS011;38103;42.776;23.112;2022-12-18T09:22:41;31.60;;;15.63;;
52104;SDS011;38103;42.776;23.112;2022-12-18T09:25:07;33.13;;;15.40;;
52104;SDS011;38103;42.776;23.112;2022-12-18T09:27:35;32.67;;;16.10;;
52104;SDS011;38103;42.776;23.112;2022-12-18T09:30:01;32.15;;;16.00;;
52104;SDS011;38103;42.776;23.112;2022-12-18T09:32:27;30.13;;;14.98;;
52104;SDS011;38103;42.776;23.112;2022-12-18T09:34:52;32.10;;;14.10;;
52104;SDS011;38103;42.776;23.112;2022-12-18T09:37:17;26.85;;;14.27;;
52104;SDS011;38103;42.776;23.112;2022-12-18T09:39:43;26.92;;;14.13;;
52104;SDS011;38103;42.776;23.112;2022-12-18T09:42:12;26.65;;;13.75;;
52104;SDS011;38103;42.776;23.112;2022-12-18T09:44:46;31.55;;;14.23;;
52104;SDS011;38103;42.776;23.112;2022-12-18T09:49:49;31.00;;;14.88;;
52104;SDS011;38103;42.776;23.112;2022-12-18T09:52:32;31.17;;;15.07;;
52104;SDS011;38103;42.776;23.112;2022-12-18T09:55:11;31.38;;;14.82;;
52104;SDS011;38103;42.776;23.112;2022-12-18T09:57:39;28.60;;;14.18;;
52104;SDS011;38103;42.776;23.112;2022-12-18T10:00:17;28.58;;;14.98;;
52104;SDS011;38103;42.776;23.112;2022-12-18T10:02:45;29.88;;;15.07;;
52104;SDS011;38103;42.776;23.112;2022-12-18T10:05:12;32.85;;;15.75;;
52104;SDS011;38103;42.776;23.112;2022-12-18T10:07:52;30.65;;;15.32;;
52104;SDS011;38103;42.776;23.112;2022-12-18T10:10:49;30.15;;;14.50;;
52104;SDS011;38103;42.776;23.112;2022-12-18T10:16:13;29.20;;;15.43;;
52104;SDS011;38103;42.776;23.112;2022-12-18T10:27:14;29.67;;;14.38;;
52104;SDS011;38103;42.776;23.112;2022-12-18T10:29:43;31.67;;;14.93;;
52104;SDS011;38103;42.776;23.112;2022-12-18T10:32:18;31.67;;;14.20;;
52104;SDS011;38103;42.776;23.112;2022-12-18T10:34:49;29.90;;;14.23;;
52104;SDS011;38103;42.776;23.112;2022-12-18T10:37:17;32.05;;;14.95;;
52104;SDS011;38103;42.776;23.112;2022-12-18T10:39:44;29.80;;;14.02;;
52104;SDS011;38103;42.776;23.112;2022-12-18T10:42:15;28.80;;;14.40;;
52104;SDS011;38103;42.776;23.112;2022-12-18T10:44:43;29.13;;;14.80;;
52104;SDS011;38103;42.776;23.112;2022-12-18T10:47:11;29.02;;;14.90;;
52104;SDS011;38103;42.776;23.112;2022-12-18T10:49:42;30.05;;;14.18;;
52104;SDS011;38103;42.776;23.112;2022-12-18T10:52:19;28.38;;;14.23;;
52104;SDS011;38103;42.776;23.112;2022-12-18T10:54:48;28.35;;;13.23;;
52104;SDS011;38103;42.776;23.112;2022-12-18T10:59:53;26.25;;;13.52;;
52104;SDS011;38103;42.776;23.112;2022-12-18T11:02:25;23.40;;;11.85;;
52104;SDS011;38103;42.776;23.112;2022-12-18T11:04:52;23.55;;;11.90;;
52104;SDS011;38103;42.776;23.112;2022-12-18T11:07:18;26.50;;;11.13;;
52104;SDS011;38103;42.776;23.112;2022-12-18T11:09:43;25.38;;;12.45;;
52104;SDS011;38103;42.776;23.112;2022-12-18T11:14:46;24.77;;;12.35;;
52104;SDS011;38103;42.776;23.112;2022-12-18T11:17:20;27.67;;;12.95;;
52104;SDS011;38103;42.776;23.112;2022-12-18T11:19:54;26.20;;;13.07;;
52104;SDS011;38103;42.776;23.112;2022-12-18T11:24:53;30.25;;;13.63;;
52104;SDS011;38103;42.776;23.112;2022-12-18T11:27:22;27.55;;;13.60;;
52104;SDS011;38103;42.776;23.112;2022-12-18T11:29:49;29.00;;;13.75;;
52104;SDS011;38103;42.776;23.112;2022-12-18T11:32:35;26.48;;;13.52;;
52104;SDS011;38103;42.776;23.112;2022-12-18T11:35:19;26.38;;;13.38;;
52104;SDS011;38103;42.776;23.112;2022-12-18T11:38:01;28.70;;;13.55;;
52104;SDS011;38103;42.776;23.112;2022-12-18T11:40:35;25.67;;;13.07;;
52104;SDS011;38103;42.776;23.112;2022-12-18T11:43:08;27.27;;;13.13;;
52104;SDS011;38103;42.776;23.112;2022-12-18T11:45:40;25.63;;;13.35;;
52104;SDS011;38103;42.776;23.112;2022-12-18T11:48:21;28.60;;;14.13;;
52104;SDS011;38103;42.776;23.112;2022-12-18T11:50:54;29.63;;;14.07;;
52104;SDS011;38103;42.776;23.112;2022-12-18T11:53:21;33.03;;;15.23;;
52104;SDS011;38103;42.776;23.112;2022-12-18T12:03:39;34.15;;;14.77;;
52104;SDS011;38103;42.776;23.112;2022-12-18T12:19:56;28.23;;;14.27;;
52104;SDS011;38103;42.776;23.112;2022-12-18T12:28:13;28.73;;;14.23;;
52104;SDS011;38103;42.776;23.112;2022-12-18T12:30:48;27.13;;;13.50;;
52104;SDS011;38103;42.776;23.112;2022-12-18T12:41:06;29.50;;;14.02;;
52104;SDS011;38103;42.776;23.112;2022-12-18T12:43:55;26.55;;;13.30;;
52104;SDS011;38103;42.776;23.112;2022-12-18T12:46:23;29.52;;;14.55;;
52104;SDS011;38103;42.776;23.112;2022-12-18T12:48:56;28.83;;;14.80;;
52104;SDS011;38103;42.776;23.112;2022-12-18T12:51:25;25.80;;;12.57;;
52104;SDS011;38103;42.776;23.112;2022-12-18T12:53:53;28.02;;;13.30;;
52104;SDS011;38103;42.776;23.112;2022-12-18T12:56:21;29.95;;;14.60;;
52104;SDS011;38103;42.776;23.112;2022-12-18T13:09:02;29.02;;;14.73;;
52104;SDS011;38103;42.776;23.112;2022-12-18T13:19:41;26.17;;;12.25;;
52104;SDS011;38103;42.776;23.112;2022-12-18T13:22:20;27.92;;;12.75;;
52104;SDS011;38103;42.776;23.112;2022-12-18T13:24:47;26.17;;;12.57;;
52104;SDS011;38103;42.776;23.112;2022-12-18T13:27:42;28.73;;;13.52;;
52104;SDS011;38103;42.776;23.112;2022-12-18T13:43:54;30.88;;;14.07;;
52104;SDS011;38103;42.776;23.112;2022-12-18T13:48:31;27.20;;;13.50;;
52104;SDS011;38103;42.776;23.112;2022-12-18T13:51:00;28.70;;;13.77;;
52104;SDS011;38103;42.776;23.112;2022-12-18T13:53:33;23.75;;;11.60;;
52104;SDS011;38103;42.776;23.112;2022-12-18T13:56:01;22.38;;;10.75;;
52104;SDS011;38103;42.776;23.112;2022-12-18T13:58:28;22.70;;;11.13;;
52104;SDS011;38103;42.776;23.112;2022-12-18T14:00:54;25.75;;;11.82;;
52104;SDS011;38103;42.776;23.112;2022-12-18T14:03:23;20.52;;;10.77;;
52104;SDS011;38103;42.776;23.112;2022-12-18T14:06:05;23.08;;;11.05;;
52104;SDS011;38103;42.776;23.112;2022-12-18T14:08:37;27.48;;;13.05;;
52104;SDS011;38103;42.776;23.112;2022-12-18T14:11:04;26.60;;;12.65;;
52104;SDS011;38103;42.776;23.112;2022-12-18T14:13:39;25.40;;;12.10;;
52104;SDS011;38103;42.776;23.112;2022-12-18T14:16:07;25.40;;;11.77;;
52104;SDS011;38103;42.776;23.112;2022-12-18T14:21:29;23.30;;;11.68;;
52104;SDS011;38103;42.776;23.112;2022-12-18T14:26:40;22.20;;;11.35;;
52104;SDS011;38103;42.776;23.112;2022-12-18T14:31:46;24.08;;;10.95;;
52104;SDS011;38103;42.776;23.112;2022-12-18T14:34:28;20.73;;;10.07;;
52104;SDS011;38103;42.776;23.112;2022-12-18T14:36:54;23.70;;;11.05;;
52104;SDS011;38103;42.776;23.112;2022-12-18T14:39:21;24.98;;;11.38;;
52104;SDS011;38103;42.776;23.112;2022-12-18T14:41:48;24.77;;;12.15;;
52104;SDS011;38103;42.776;23.112;2022-12-18T14:44:14;23.00;;;10.55;;
52104;SDS011;38103;42.776;23.112;2022-12-18T14:46:39;24.25;;;11.48;;
52104;SDS011;38103;42.776;23.112;2022-12-18T14:49:19;22.55;;;10.63;;
52104;SDS011;38103;42.776;23.112;2022-12-18T14:52:34;27.58;;;12.30;;
52104;SDS011;38103;42.776;23.112;2022-12-18T14:54:52;24.65;;;11.93;;
52104;SDS011;38103;42.776;23.112;2022-12-18T14:57:25;25.88;;;12.13;;
52104;SDS011;38103;42.776;23.112;2022-12-18T15:00:05;28.45;;;13.27;;
52104;SDS011;38103;42.776;23.112;2022-12-18T15:02:32;32.17;;;13.95;;
52104;SDS011;38103;42.776;23.112;2022-12-18T15:07:45;27.48;;;13.10;;
52104;SDS011;38103;42.776;23.112;2022-12-18T15:10:16;28.50;;;12.35;;
52104;SDS011;38103;42.776;23.112;2022-12-18T15:20:32;27.55;;;14.20;;
52104;SDS011;38103;42.776;23.112;2022-12-18T15:23:34;29.00;;;13.85;;
52104;SDS011;38103;42.776;23.112;2022-12-18T15:26:01;29.05;;;14.10;;
52104;SDS011;38103;42.776;23.112;2022-12-18T15:28:36;25.83;;;12.85;;
52104;SDS011;38103;42.776;23.112;2022-12-18T15:31:29;27.65;;;13.00;;
52104;SDS011;38103;42.776;23.112;2022-12-18T15:36:22;30.13;;;14.15;;
52104;SDS011;38103;42.776;23.112;2022-12-18T15:38:52;29.92;;;14.05;;
52104;SDS011;38103;42.776;23.112;2022-12-18T15:41:20;28.63;;;14.40;;
52104;SDS011;38103;42.776;23.112;2022-12-18T15:43:46;32.45;;;13.85;;
52104;SDS011;38103;42.776;23.112;2022-12-18T15:48:44;29.33;;;14.32;;
52104;SDS011;38103;42.776;23.112;2022-12-18T15:51:13;29.38;;;15.13;;
52104;SDS011;38103;42.776;23.112;2022-12-18T15:53:43;35.00;;;15.85;;
52104;SDS011;38103;42.776;23.112;2022-12-18T15:56:13;33.28;;;15.10;;
52104;SDS011;38103;42.776;23.112;2022-12-18T15:58:58;32.67;;;15.90;;
52104;SDS011;38103;42.776;23.112;2022-12-18T16:01:28;47.63;;;22.33;;
52104;SDS011;38103;42.776;23.112;2022-12-18T16:03:56;44.20;;;18.95;;
52104;SDS011;38103;42.776;23.112;2022-12-18T16:06:22;38.03;;;18.33;;
52104;SDS011;38103;42.776;23.112;2022-12-18T16:08:48;33.70;;;16.60;;
52104;SDS011;38103;42.776;23.112;2022-12-18T16:13:45;32.97;;;15.70;;
52104;SDS011;38103;42.776;23.112;2022-12-18T16:16:10;32.10;;;16.38;;
52104;SDS011;38103;42.776;23.112;2022-12-18T16:18:35;35.50;;;15.60;;
52104;SDS011;38103;42.776;23.112;2022-12-18T16:21:01;32.92;;;16.25;;
52104;SDS011;38103;42.776;23.112;2022-12-18T16:23:26;34.97;;;16.75;;
52104;SDS011;38103;42.776;23.112;2022-12-18T16:25:52;33.22;;;16.05;;
52104;SDS011;38103;42.776;23.112;2022-12-18T16:28:17;31.90;;;15.82;;
52104;SDS011;38103;42.776;23.112;2022-12-18T16:30:43;33.92;;;16.67;;
52104;SDS011;38103;42.776;23.112;2022-12-18T16:33:09;33.05;;;16.25;;
52104;SDS011;38103;42.776;23.112;2022-12-18T16:35:35;31.60;;;15.25;;
52104;SDS011;38103;42.776;23.112;2022-12-18T16:38:02;31.80;;;15.05;;
52104;SDS011;38103;42.776;23.112;2022-12-18T16:40:27;32.47;;;16.65;;
52104;SDS011;38103;42.776;23.112;2022-12-18T16:42:53;31.90;;;15.40;;
52104;SDS011;38103;42.776;23.112;2022-12-18T16:45:18;31.48;;;15.02;;